createdAt,value
2022-12-26T00:01:50.833Z,7.60
2022-12-26T00:04:49.411Z,7.70
2022-12-26T00:07:06.281Z,7.80
2022-12-26T00:09:34.536Z,7.80
2022-12-26T00:12:02.150Z,7.80
2022-12-26T00:14:29.702Z,7.80
2022-12-26T00:16:57.706Z,7.90
2022-12-26T00:19:25.308Z,7.90
2022-12-26T00:21:53.006Z,7.90
2022-12-26T00:24:20.564Z,7.90
2022-12-26T00:26:48.118Z,7.90
2022-12-26T00:29:15.698Z,7.90
2022-12-26T00:31:43.251Z,7.90
2022-12-26T00:34:12.578Z,7.90
2022-12-26T00:36:40.323Z,8.40
2022-12-26T00:39:13.174Z,7.90
2022-12-26T00:41:40.817Z,7.90
2022-12-26T00:44:08.370Z,7.90
2022-12-26T00:46:36.074Z,7.90
2022-12-26T00:49:04.385Z,7.90
2022-12-26T00:51:31.935Z,8.00
2022-12-26T00:53:59.445Z,8.00
2022-12-26T00:56:27.016Z,7.90
2022-12-26T00:58:54.553Z,7.70
2022-12-26T01:01:24.272Z,7.40
2022-12-26T01:03:52.622Z,7.10
2022-12-26T01:06:20.213Z,6.90
2022-12-26T01:08:47.791Z,6.50
2022-12-26T01:11:36.887Z,6.50
2022-12-26T01:14:04.847Z,6.30
2022-12-26T01:16:32.611Z,6.00
2022-12-26T01:19:02.144Z,5.50
2022-12-26T01:21:29.881Z,5.50
2022-12-26T01:23:57.538Z,5.30
2022-12-26T01:26:25.244Z,5.00
2022-12-26T01:28:53.338Z,5.00
2022-12-26T01:31:22.986Z,4.90
2022-12-26T01:33:50.856Z,4.80
2022-12-26T01:36:18.810Z,4.70
2022-12-26T01:38:46.742Z,4.70
2022-12-26T01:41:19.543Z,4.60
2022-12-26T01:43:49.945Z,4.50
2022-12-26T01:46:22.690Z,4.40
2022-12-26T01:48:51.490Z,4.30
2022-12-26T01:51:22.136Z,4.20
2022-12-26T01:53:54.346Z,4.20
2022-12-26T01:56:35.570Z,4.10
2022-12-26T01:59:09.460Z,4.00
2022-12-26T02:01:40.231Z,4.00
2022-12-26T02:04:31.136Z,3.90
2022-12-26T02:07:04.217Z,3.80
2022-12-26T02:09:33.159Z,3.80
2022-12-26T02:12:35.017Z,3.70
2022-12-26T02:15:10.171Z,3.60
2022-12-26T02:17:42.175Z,3.50
2022-12-26T02:20:17.677Z,3.50
2022-12-26T02:23:00.654Z,3.50
2022-12-26T02:25:58.699Z,3.40
2022-12-26T02:28:55.342Z,3.40
2022-12-26T02:31:36.355Z,3.30
2022-12-26T02:34:19.674Z,3.30
2022-12-26T02:36:51.100Z,3.30
2022-12-26T02:39:43.539Z,3.30
2022-12-26T02:42:23.396Z,3.20
2022-12-26T02:45:42.956Z,3.20
2022-12-26T02:48:58.593Z,3.20
2022-12-26T02:52:36.721Z,3.10
2022-12-26T02:55:35.271Z,3.10
2022-12-26T02:58:35.087Z,3.10
2022-12-26T03:01:27.223Z,3.00
2022-12-26T03:04:20.150Z,3.00
2022-12-26T03:07:15.591Z,3.00
2022-12-26T03:10:03.169Z,2.90
2022-12-26T03:13:05.726Z,3.00
2022-12-26T03:15:57.168Z,2.90
2022-12-26T03:18:57.962Z,2.90
2022-12-26T03:21:20.341Z,2.90
2022-12-26T03:23:50.228Z,2.90
2022-12-26T03:26:40.056Z,2.80
2022-12-26T03:29:41.265Z,2.80
2022-12-26T03:32:12.547Z,2.70
2022-12-26T03:34:44.851Z,2.70
2022-12-26T03:37:49.651Z,2.70
2022-12-26T03:40:49.017Z,2.60
2022-12-26T03:43:55.044Z,2.60
2022-12-26T03:47:12.518Z,2.50
2022-12-26T03:50:12.324Z,2.50
2022-12-26T03:53:14.293Z,2.50
2022-12-26T03:56:20.828Z,2.40
2022-12-26T03:59:27.966Z,2.40
2022-12-26T04:02:18.668Z,2.40
2022-12-26T04:05:05.226Z,2.40
2022-12-26T04:07:58.083Z,2.30
2022-12-26T04:10:53.262Z,2.30
2022-12-26T04:13:57.275Z,2.30
2022-12-26T04:17:06.661Z,2.30
2022-12-26T04:19:58.319Z,2.20
2022-12-26T04:22:53.813Z,2.20
2022-12-26T04:25:49.466Z,2.20
2022-12-26T04:28:42.127Z,2.20
2022-12-26T04:31:37.585Z,2.10
2022-12-26T04:34:29.302Z,2.00
2022-12-26T04:37:21.210Z,2.10
2022-12-26T04:40:10.185Z,2.00
2022-12-26T04:42:58.998Z,1.90
2022-12-26T04:45:35.498Z,1.90
2022-12-26T04:48:21.724Z,1.90
2022-12-26T04:50:53.444Z,1.70
2022-12-26T04:53:22.107Z,1.70
2022-12-26T04:55:50.849Z,1.70
2022-12-26T04:58:18.512Z,1.60
2022-12-26T05:00:46.157Z,1.60
2022-12-26T05:03:32.976Z,1.50
2022-12-26T05:06:19.937Z,1.50
2022-12-26T05:09:06.761Z,1.50
2022-12-26T05:11:35.512Z,1.50
2022-12-26T05:14:03.267Z,1.40
2022-12-26T05:16:49.566Z,1.40
2022-12-26T05:19:36.326Z,1.40
2022-12-26T05:22:23.832Z,1.40
2022-12-26T05:25:11.391Z,1.40
2022-12-26T05:28:00.956Z,1.50
2022-12-26T05:30:29.169Z,1.50
2022-12-26T05:33:15.308Z,1.60
2022-12-26T05:35:43.241Z,1.60
2022-12-26T05:38:11.316Z,1.70
2022-12-26T05:40:38.990Z,1.70
2022-12-26T05:43:06.601Z,1.80
2022-12-26T05:45:34.388Z,1.80
2022-12-26T05:48:02.383Z,1.90
2022-12-26T05:50:30.355Z,1.90
2022-12-26T05:52:59.392Z,2.00
2022-12-26T05:55:27.426Z,2.00
2022-12-26T05:57:55.469Z,2.10
2022-12-26T06:03:02.373Z,2.10
2022-12-26T06:05:30.411Z,2.10
2022-12-26T06:07:58.430Z,2.10
2022-12-26T06:10:29.930Z,2.10
2022-12-26T06:12:57.595Z,2.10
2022-12-26T06:15:25.194Z,2.20
2022-12-26T06:17:55.182Z,2.10
2022-12-26T06:20:23.329Z,2.10
2022-12-26T06:22:51.106Z,2.10
2022-12-26T06:25:18.817Z,2.20
2022-12-26T06:27:46.735Z,2.30
2022-12-26T06:30:14.434Z,2.20
2022-12-26T06:32:42.375Z,2.30
2022-12-26T06:35:13.163Z,2.30
2022-12-26T06:37:40.924Z,2.30
2022-12-26T06:40:09.460Z,2.30
2022-12-26T06:42:37.335Z,2.30
2022-12-26T06:45:05.398Z,2.30
2022-12-26T06:47:33.318Z,2.30
2022-12-26T06:50:08.125Z,2.30
2022-12-26T06:52:35.972Z,2.30
2022-12-26T06:55:08.467Z,2.30
2022-12-26T06:57:36.705Z,2.30
2022-12-26T07:00:04.843Z,2.30
2022-12-26T07:02:32.607Z,2.50
2022-12-26T07:05:00.467Z,2.50
2022-12-26T07:07:28.339Z,2.60
2022-12-26T07:09:57.035Z,2.60
2022-12-26T07:12:24.832Z,2.60
2022-12-26T07:14:55.445Z,2.60
2022-12-26T07:17:25.648Z,2.70
2022-12-26T07:19:53.571Z,2.60
2022-12-26T07:22:23.914Z,2.60
2022-12-26T07:24:51.690Z,2.60
2022-12-26T07:27:19.356Z,2.50
2022-12-26T07:29:49.938Z,2.50
2022-12-26T07:32:22.879Z,2.40
2022-12-26T07:34:50.710Z,2.30
2022-12-26T07:37:18.401Z,2.30
2022-12-26T07:39:47.412Z,2.20
2022-12-26T07:42:21.505Z,2.10
2022-12-26T07:44:49.720Z,2.10
2022-12-26T07:47:17.498Z,2.10
2022-12-26T07:49:48.039Z,2.00
2022-12-26T07:52:15.724Z,2.00
2022-12-26T07:54:43.491Z,1.90
2022-12-26T07:59:59.038Z,1.90
2022-12-26T08:02:29.037Z,2.00
2022-12-26T08:04:56.909Z,1.90
2022-12-26T08:07:24.635Z,1.90
2022-12-26T08:09:52.555Z,2.00
2022-12-26T08:12:21.711Z,2.00
2022-12-26T08:14:49.748Z,2.00
2022-12-26T08:17:18.316Z,2.10
2022-12-26T08:19:46.047Z,2.10
2022-12-26T08:22:14.141Z,2.10
2022-12-26T08:24:44.376Z,2.20
2022-12-26T08:27:18.323Z,2.20
2022-12-26T08:29:47.912Z,2.20
2022-12-26T08:32:15.705Z,2.30
2022-12-26T08:34:43.977Z,2.30
2022-12-26T08:37:11.761Z,2.40
2022-12-26T08:39:41.285Z,2.40
2022-12-26T08:42:09.230Z,2.30
2022-12-26T08:44:45.894Z,2.30
2022-12-26T08:47:14.708Z,2.30
2022-12-26T08:49:42.530Z,2.20
2022-12-26T08:52:13.316Z,2.20
2022-12-26T08:54:40.892Z,2.20
2022-12-26T08:57:09.633Z,2.10
2022-12-26T08:59:37.415Z,2.20
2022-12-26T09:02:06.113Z,2.10
2022-12-26T09:04:33.945Z,2.10
2022-12-26T09:07:01.766Z,2.10
2022-12-26T09:09:29.915Z,2.10
2022-12-26T09:12:05.163Z,2.10
2022-12-26T09:14:33.183Z,2.20
2022-12-26T09:17:00.981Z,2.30
2022-12-26T09:19:32.485Z,2.30
2022-12-26T09:22:21.626Z,2.40
2022-12-26T09:24:59.158Z,2.40
2022-12-26T09:27:33.554Z,2.50
2022-12-26T09:30:07.290Z,2.50
2022-12-26T09:32:36.174Z,2.60
2022-12-26T09:35:04.949Z,2.60
2022-12-26T09:37:33.048Z,2.60
2022-12-26T09:40:00.994Z,2.60
2022-12-26T09:42:54.523Z,2.60
2022-12-26T09:45:52.090Z,2.10
2022-12-26T09:48:34.379Z,2.70
2022-12-26T09:51:03.083Z,2.80
2022-12-26T09:53:36.874Z,2.80
2022-12-26T09:56:23.772Z,2.90
2022-12-26T09:59:02.965Z,2.90
2022-12-26T10:01:35.158Z,3.00
2022-12-26T10:04:09.681Z,3.10
2022-12-26T10:06:42.279Z,3.10
2022-12-26T10:09:22.979Z,3.10
2022-12-26T10:11:53.613Z,3.20
2022-12-26T10:14:32.885Z,3.20
2022-12-26T10:17:45.463Z,3.30
2022-12-26T10:20:31.485Z,3.40
2022-12-26T10:23:16.019Z,3.50
2022-12-26T10:25:55.876Z,3.60
2022-12-26T10:28:39.179Z,3.70
2022-12-26T10:31:17.186Z,3.80
2022-12-26T10:34:12.464Z,3.90
2022-12-26T10:37:01.823Z,3.60
2022-12-26T10:39:39.577Z,3.90
2022-12-26T10:42:32.886Z,4.00
2022-12-26T10:45:01.550Z,4.10
2022-12-26T10:47:40.006Z,4.10
2022-12-26T10:50:16.960Z,4.10
2022-12-26T10:52:44.812Z,4.20
2022-12-26T10:55:29.060Z,4.20
2022-12-26T10:58:38.389Z,4.30
2022-12-26T11:01:47.396Z,4.50
2022-12-26T11:05:02.046Z,4.60
2022-12-26T11:07:13.035Z,4.70
2022-12-26T11:09:45.697Z,4.70
2022-12-26T11:12:28.477Z,4.90
2022-12-26T11:15:05.428Z,5.00
2022-12-26T11:17:43.346Z,5.10
2022-12-26T11:20:17.352Z,5.30
2022-12-26T11:22:46.594Z,5.40
2022-12-26T11:25:27.823Z,5.70
2022-12-26T11:27:57.768Z,5.70
2022-12-26T11:30:40.828Z,5.80
2022-12-26T11:33:29.598Z,6.10
2022-12-26T11:36:05.903Z,6.20
2022-12-26T11:38:45.516Z,6.40
2022-12-26T11:41:44.032Z,6.60
2022-12-26T11:44:12.361Z,6.70
2022-12-26T11:46:57.274Z,6.90
2022-12-26T11:49:27.218Z,6.90
2022-12-26T11:51:59.250Z,7.00
2022-12-26T11:54:36.850Z,7.10
2022-12-26T11:57:10.418Z,7.40
2022-12-26T11:59:39.118Z,7.70
2022-12-26T12:02:24.342Z,7.90
2022-12-26T12:04:55.057Z,8.10
2022-12-26T12:07:30.058Z,8.30
2022-12-26T12:10:13.126Z,8.90
2022-12-26T12:12:51.186Z,8.90
2022-12-26T12:15:25.450Z,8.90
2022-12-26T12:18:23.753Z,9.10
2022-12-26T12:21:23.279Z,8.90
2022-12-26T12:24:04.913Z,8.90
2022-12-26T12:26:58.846Z,8.90
2022-12-26T12:30:01.691Z,9.00
2022-12-26T12:32:34.802Z,9.30
2022-12-26T12:35:22.560Z,9.90
2022-12-26T12:38:08.135Z,9.90
2022-12-26T12:40:50.563Z,10.20
2022-12-26T12:43:42.041Z,10.20
2022-12-26T12:46:12.951Z,9.90
2022-12-26T12:48:53.683Z,9.80
2022-12-26T12:51:21.412Z,9.80
2022-12-26T12:54:22.478Z,9.90
2022-12-26T12:57:11.035Z,10.00
2022-12-26T13:00:19.708Z,10.20
2022-12-26T13:02:59.159Z,10.40
2022-12-26T13:05:38.234Z,10.70
2022-12-26T13:08:47.042Z,10.90
2022-12-26T13:11:26.604Z,11.10
2022-12-26T13:14:06.514Z,11.20
2022-12-26T13:16:43.746Z,11.20
2022-12-26T13:19:40.710Z,11.30
2022-12-26T13:22:23.977Z,11.30
2022-12-26T13:24:58.237Z,11.40
2022-12-26T13:27:33.181Z,11.50
2022-12-26T13:30:00.885Z,11.60
2022-12-26T13:32:31.221Z,11.60
2022-12-26T13:35:00.873Z,11.70
2022-12-26T13:37:37.598Z,11.90
2022-12-26T13:40:11.350Z,11.90
2022-12-26T13:43:08.558Z,11.90
2022-12-26T13:45:42.164Z,12.10
2022-12-26T13:48:16.115Z,12.10
2022-12-26T13:50:56.203Z,12.40
2022-12-26T13:53:24.387Z,12.40
2022-12-26T13:55:54.246Z,12.60
2022-12-26T13:58:55.665Z,12.60
2022-12-26T14:02:07.242Z,12.30
2022-12-26T14:05:09.227Z,12.00
2022-12-26T14:07:59.042Z,11.90
2022-12-26T14:10:53.013Z,11.20
2022-12-26T14:13:49.960Z,10.40
2022-12-26T14:16:34.943Z,9.60
2022-12-26T14:19:19.789Z,8.40
2022-12-26T14:22:02.767Z,8.10
2022-12-26T14:24:45.550Z,7.70
2022-12-26T14:27:32.388Z,7.40
2022-12-26T14:30:06.948Z,7.10
2022-12-26T14:32:51.391Z,7.00
2022-12-26T14:35:18.979Z,6.80
2022-12-26T14:38:04.359Z,6.50
2022-12-26T14:40:37.724Z,6.50
2022-12-26T14:43:17.938Z,6.40
2022-12-26T14:45:53.522Z,6.30
2022-12-26T14:48:24.253Z,6.30
2022-12-26T14:50:53.093Z,6.20
2022-12-26T14:53:29.668Z,6.20
2022-12-26T14:56:10.481Z,6.10
2022-12-26T14:58:47.193Z,6.00
2022-12-26T15:01:20.767Z,6.00
2022-12-26T15:04:12.137Z,6.00
2022-12-26T15:06:54.924Z,6.00
2022-12-26T15:09:53.390Z,5.90
2022-12-26T15:12:58.965Z,5.80
2022-12-26T15:15:33.083Z,5.80
2022-12-26T15:18:37.747Z,5.70
2022-12-26T15:21:45.641Z,5.60
2022-12-26T15:25:18.011Z,5.60
2022-12-26T15:28:00.414Z,5.60
2022-12-26T15:30:34.379Z,5.50
2022-12-26T15:33:26.581Z,5.40
2022-12-26T15:36:05.431Z,5.40
2022-12-26T15:38:36.506Z,5.40
2022-12-26T15:41:19.319Z,5.30
2022-12-26T15:44:03.733Z,5.30
2022-12-26T15:46:36.526Z,5.20
2022-12-26T15:49:19.667Z,5.20
2022-12-26T15:51:55.585Z,5.10
2022-12-26T15:55:07.026Z,5.10
2022-12-26T15:57:49.135Z,5.00
2022-12-26T16:00:33.239Z,5.00
2022-12-26T16:03:06.742Z,4.90
2022-12-26T16:05:56.710Z,4.90
2022-12-26T16:08:24.211Z,4.80
2022-12-26T16:11:09.711Z,4.80
2022-12-26T16:13:48.360Z,4.80
2022-12-26T16:16:25.565Z,4.70
2022-12-26T16:18:53.400Z,4.60
2022-12-26T16:21:41.652Z,4.60
2022-12-26T16:24:11.075Z,4.60
2022-12-26T16:26:44.959Z,4.50
2022-12-26T16:29:19.118Z,4.50
2022-12-26T16:31:47.493Z,4.40
2022-12-26T16:34:21.927Z,4.40
2022-12-26T16:36:51.339Z,4.40
2022-12-26T16:39:23.432Z,4.30
2022-12-26T16:42:28.450Z,4.30
2022-12-26T16:44:57.271Z,4.30
2022-12-26T16:47:25.476Z,4.20
2022-12-26T16:49:54.050Z,4.20
2022-12-26T16:52:34.037Z,4.20
2022-12-26T16:55:38.300Z,4.20
2022-12-26T16:58:16.599Z,4.10
2022-12-26T17:01:09.841Z,4.00
2022-12-26T17:03:54.567Z,4.00
2022-12-26T17:06:29.993Z,4.00
2022-12-26T17:09:11.533Z,4.00
2022-12-26T17:11:51.546Z,3.90
2022-12-26T17:14:28.301Z,3.90
2022-12-26T17:17:02.347Z,3.90
2022-12-26T17:19:33.045Z,3.90
2022-12-26T17:22:17.847Z,3.90
2022-12-26T17:24:47.504Z,3.90
2022-12-26T17:27:24.799Z,3.90
2022-12-26T17:30:22.339Z,3.90
2022-12-26T17:32:50.103Z,3.90
2022-12-26T17:35:23.611Z,3.90
2022-12-26T17:38:02.830Z,3.90
2022-12-26T17:40:35.993Z,3.80
2022-12-26T17:43:12.298Z,3.80
2022-12-26T17:45:46.626Z,3.80
2022-12-26T17:48:15.299Z,3.80
2022-12-26T17:50:46.754Z,3.70
2022-12-26T17:53:33.978Z,3.70
2022-12-26T17:56:04.658Z,3.70
2022-12-26T17:58:33.227Z,3.70
2022-12-26T18:01:01.509Z,3.70
2022-12-26T18:03:29.290Z,3.70
2022-12-26T18:05:57.367Z,3.60
2022-12-26T18:08:28.267Z,3.70
2022-12-26T18:10:56.266Z,3.60
2022-12-26T18:13:24.426Z,3.60
2022-12-26T18:15:54.530Z,3.60
2022-12-26T18:18:24.256Z,3.50
2022-12-26T18:20:52.284Z,3.50
2022-12-26T18:23:20.255Z,3.50
2022-12-26T18:25:52.790Z,3.50
2022-12-26T18:28:22.122Z,3.50
2022-12-26T18:30:49.828Z,3.50
2022-12-26T18:33:17.456Z,3.50
2022-12-26T18:35:45.481Z,3.50
2022-12-26T18:38:15.880Z,3.50
2022-12-26T18:40:47.788Z,3.50
2022-12-26T18:43:15.500Z,3.50
2022-12-26T18:45:43.631Z,3.40
2022-12-26T18:48:17.340Z,3.50
2022-12-26T18:50:47.556Z,3.40
2022-12-26T18:53:16.679Z,3.50
2022-12-26T18:55:44.329Z,3.40
2022-12-26T18:58:13.374Z,3.40
2022-12-26T19:00:43.854Z,3.40
2022-12-26T19:03:11.608Z,3.40
2022-12-26T19:05:39.433Z,3.30
2022-12-26T19:08:07.316Z,3.30
2022-12-26T19:10:35.282Z,3.30
2022-12-26T19:13:07.040Z,3.30
2022-12-26T19:15:36.410Z,3.30
2022-12-26T19:18:05.190Z,3.40
2022-12-26T19:20:32.973Z,3.40
2022-12-26T19:23:00.633Z,3.40
2022-12-26T19:25:28.755Z,3.40
2022-12-26T19:27:56.629Z,3.40
2022-12-26T19:30:24.597Z,3.40
2022-12-26T19:32:52.212Z,3.30
2022-12-26T19:35:19.935Z,3.30
2022-12-26T19:37:47.983Z,3.30
2022-12-26T19:40:21.209Z,3.20
2022-12-26T19:42:53.226Z,3.20
2022-12-26T19:45:20.890Z,3.20
2022-12-26T19:47:49.047Z,3.10
2022-12-26T19:50:19.440Z,3.10
2022-12-26T19:52:47.426Z,3.00
2022-12-26T19:55:15.198Z,3.00
2022-12-26T19:57:43.014Z,3.00
2022-12-26T20:00:11.380Z,3.00
2022-12-26T20:02:43.419Z,3.00
2022-12-26T20:05:13.293Z,3.00
2022-12-26T20:07:41.250Z,2.90
2022-12-26T20:10:09.153Z,3.00
2022-12-26T20:12:37.021Z,3.00
2022-12-26T20:15:05.204Z,3.00
2022-12-26T20:17:33.036Z,3.00
2022-12-26T20:20:00.809Z,3.80
2022-12-26T20:22:31.482Z,3.00
2022-12-26T20:24:59.421Z,3.00
2022-12-26T20:27:27.701Z,2.90
2022-12-26T20:29:55.367Z,3.00
2022-12-26T20:32:22.979Z,3.00
2022-12-26T20:34:50.741Z,3.00
2022-12-26T20:37:18.889Z,3.10
2022-12-26T20:39:46.501Z,3.20
2022-12-26T20:42:16.379Z,3.20
2022-12-26T20:44:44.085Z,3.20
2022-12-26T20:47:11.932Z,3.20
2022-12-26T20:49:39.719Z,3.20
2022-12-26T20:52:07.443Z,3.10
2022-12-26T20:54:35.097Z,3.10
2022-12-26T20:57:05.357Z,3.10
2022-12-26T20:59:32.911Z,3.10
2022-12-26T21:02:00.677Z,3.10
2022-12-26T21:04:28.692Z,3.00
2022-12-26T21:06:56.464Z,2.90
2022-12-26T21:09:24.435Z,2.90
2022-12-26T21:11:52.013Z,2.90
2022-12-26T21:14:21.411Z,2.90
2022-12-26T21:16:55.421Z,2.90
2022-12-26T21:19:25.964Z,3.00
2022-12-26T21:21:55.654Z,2.90
2022-12-26T21:24:26.913Z,3.00
2022-12-26T21:26:58.700Z,3.00
2022-12-26T21:29:29.397Z,3.00
2022-12-26T21:31:57.765Z,3.00
2022-12-26T21:34:28.077Z,3.00
2022-12-26T21:37:15.685Z,3.00
2022-12-26T21:39:51.538Z,2.90
2022-12-26T21:42:19.379Z,2.90
2022-12-26T21:44:47.542Z,3.00
2022-12-26T21:47:17.760Z,2.90
2022-12-26T21:49:45.632Z,2.90
2022-12-26T21:52:13.423Z,2.90
2022-12-26T21:57:27.725Z,2.90
2022-12-26T21:59:59.346Z,2.80
2022-12-26T22:02:55.107Z,2.80
2022-12-26T22:05:36.580Z,2.80
2022-12-26T22:08:08.427Z,2.80
2022-12-26T22:10:56.309Z,2.80
2022-12-26T22:13:27.087Z,2.80
2022-12-26T22:16:03.513Z,2.70
2022-12-26T22:18:36.182Z,2.70
2022-12-26T22:21:10.125Z,2.70
2022-12-26T22:23:42.209Z,2.70
2022-12-26T22:26:13.862Z,2.70
2022-12-26T22:28:42.456Z,2.70
2022-12-26T22:31:24.472Z,4.60
2022-12-26T22:33:57.192Z,2.80
2022-12-26T22:36:25.767Z,2.80
2022-12-26T22:38:54.644Z,2.90
2022-12-26T22:41:22.609Z,2.90
2022-12-26T22:43:50.446Z,3.00
2022-12-26T22:46:18.907Z,3.00
2022-12-26T22:48:46.670Z,3.00
2022-12-26T22:51:23.350Z,3.00
2022-12-26T22:53:54.736Z,3.00
2022-12-26T22:56:22.488Z,3.00
2022-12-26T22:59:00.467Z,3.00
2022-12-26T23:01:28.465Z,2.90
2022-12-26T23:03:56.473Z,3.00
2022-12-26T23:06:27.083Z,2.90
2022-12-26T23:08:57.802Z,2.90
2022-12-26T23:11:34.298Z,2.90
2022-12-26T23:14:04.983Z,2.90
2022-12-26T23:16:42.379Z,2.80
2022-12-26T23:19:37.145Z,2.80
2022-12-26T23:22:07.157Z,2.70
2022-12-26T23:24:41.664Z,2.70
2022-12-26T23:27:31.834Z,2.60
2022-12-26T23:30:18.113Z,2.50
2022-12-26T23:32:53.125Z,2.50
2022-12-26T23:35:23.276Z,2.50
2022-12-26T23:37:51.162Z,2.50
2022-12-26T23:40:20.311Z,2.40
2022-12-26T23:42:48.072Z,2.40
2022-12-26T23:45:18.877Z,2.40
2022-12-26T23:47:47.143Z,2.50
2022-12-26T23:50:20.443Z,2.50
2022-12-26T23:52:48.337Z,2.50
2022-12-26T23:55:16.057Z,2.50
2022-12-26T23:57:45.296Z,2.50
